Time;durP1;ratioP1;P1;durP2;ratioP2;P2;SDS_P1;SDS_P2;PMS_P1;PMS_P2;Temp;Humidity;BMP_temperature;BMP_pressure;BME280_temperature;BME280_humidity;BME280_pressure;Samples;Min_cycle;Max_cycle;Signal;HPM_P1;HPM_P2
2023/03/09 00:01:32;;;;;;;11.55;4.40;;;2.70;99.90;;;;;;4234636;28;20852;-82
2023/03/09 00:03:34;;;;;;;9.57;4.68;;;2.50;99.90;;;;;;4232953;28;20484;-82
2023/03/09 00:05:35;;;;;;;9.05;4.75;;;3.00;99.90;;;;;;4234041;28;20048;-82
2023/03/09 00:07:35;;;;;;;11.30;4.60;;;2.40;99.90;;;;;;4232890;28;20453;-82
2023/03/09 00:09:36;;;;;;;10.07;4.78;;;2.80;99.90;;;;;;4233841;28;20051;-82
2023/03/09 00:11:40;;;;;;;12.65;5.32;;;3.00;99.90;;;;;;4233609;28;20103;-82
2023/03/09 00:13:41;;;;;;;8.50;4.47;;;2.80;99.90;;;;;;4216454;28;20044;-82
2023/03/09 00:15:49;;;;;;;9.25;4.75;;;2.30;99.90;;;;;;4215993;28;20047;-82
2023/03/09 00:17:50;;;;;;;10.73;4.70;;;2.30;99.90;;;;;;4234062;28;20043;-82
2023/03/09 00:19:52;;;;;;;10.90;5.10;;;2.30;99.90;;;;;;4234097;28;20104;-82
2023/03/09 00:21:54;;;;;;;11.75;5.20;;;2.30;99.90;;;;;;4234352;28;20168;-82
2023/03/09 00:23:57;;;;;;;10.00;4.85;;;2.50;99.90;;;;;;4215983;28;20048;-82
2023/03/09 00:26:04;;;;;;;14.25;5.40;;;2.30;99.90;;;;;;4239607;27;20058;-82
2023/03/09 00:28:07;;;;;;;13.02;5.88;;;2.40;99.90;;;;;;4250219;27;20127;-82
2023/03/09 00:30:09;;;;;;;12.55;5.80;;;2.80;99.90;;;;;;4215922;28;20058;-82
2023/03/09 00:32:10;;;;;;;11.02;5.60;;;2.20;99.90;;;;;;4216769;28;20048;-82
2023/03/09 00:34:15;;;;;;;15.38;5.80;;;3.00;99.90;;;;;;4216096;28;20066;-82
2023/03/09 00:36:16;;;;;;;11.23;5.75;;;2.20;99.90;;;;;;4232743;28;20047;-82
2023/03/09 00:38:19;;;;;;;11.63;5.55;;;2.20;99.90;;;;;;4232245;28;20079;-82
2023/03/09 00:40:19;;;;;;;13.13;6.45;;;2.20;99.90;;;;;;4218727;28;20055;-81
2023/03/09 00:42:20;;;;;;;13.55;5.88;;;2.20;99.90;;;;;;4234862;28;20051;-82
2023/03/09 00:44:21;;;;;;;14.57;5.60;;;3.00;99.90;;;;;;4216358;28;20141;-82
2023/03/09 00:46:22;;;;;;;13.82;6.40;;;2.30;99.90;;;;;;4216293;28;20122;-82
2023/03/09 00:48:23;;;;;;;14.13;6.63;;;2.20;99.90;;;;;;4215669;28;20052;-82
2023/03/09 00:50:25;;;;;;;12.52;5.50;;;2.20;99.90;;;;;;4216528;28;20540;-82
2023/03/09 00:52:27;;;;;;;14.65;7.05;;;2.10;99.90;;;;;;4216622;28;20051;-81
2023/03/09 00:54:28;;;;;;;19.38;7.82;;;2.60;99.90;;;;;;4235001;28;20043;-82
2023/03/09 00:56:29;;;;;;;12.68;6.05;;;2.30;99.90;;;;;;4199343;28;20048;-82
2023/03/09 00:58:32;;;;;;;11.27;5.40;;;2.10;99.90;;;;;;4216527;28;20076;-81
2023/03/09 01:00:33;;;;;;;17.13;6.90;;;2.00;99.90;;;;;;4241947;27;20383;-83
2023/03/09 01:02:34;;;;;;;12.57;6.10;;;2.20;99.90;;;;;;4232882;28;20164;-82
2023/03/09 01:04:35;;;;;;;14.02;6.45;;;2.00;99.90;;;;;;4232895;28;20055;-82
2023/03/09 01:06:36;;;;;;;12.73;5.97;;;2.30;99.90;;;;;;4250963;27;20075;-81
2023/03/09 01:08:37;;;;;;;14.13;7.10;;;2.60;99.90;;;;;;4232400;28;20059;-82
2023/03/09 01:10:39;;;;;;;9.63;4.90;;;1.90;99.90;;;;;;4250895;27;20043;-82
2023/03/09 01:12:41;;;;;;;13.93;6.28;;;2.10;99.90;;;;;;4232964;28;20048;-81
2023/03/09 01:14:41;;;;;;;14.27;6.22;;;2.00;99.90;;;;;;4250113;27;20403;-82
2023/03/09 01:16:43;;;;;;;13.88;6.72;;;2.60;99.90;;;;;;4232521;28;20039;-81
2023/03/09 01:18:45;;;;;;;13.52;6.22;;;1.90;99.90;;;;;;4250650;27;20043;-81
2023/03/09 01:20:46;;;;;;;11.93;5.60;;;2.10;99.90;;;;;;4250823;27;20043;-81
2023/03/09 01:22:47;;;;;;;13.05;6.13;;;1.70;99.90;;;;;;4232212;28;20128;-81
2023/03/09 01:24:48;;;;;;;12.25;5.70;;;2.60;99.90;;;;;;4232354;28;20051;-81
2023/03/09 01:26:49;;;;;;;13.15;5.60;;;1.60;99.90;;;;;;4232273;28;20502;-82
2023/03/09 01:28:50;;;;;;;12.70;6.53;;;2.90;99.90;;;;;;4214199;28;20488;-81
2023/03/09 01:30:52;;;;;;;11.45;5.68;;;1.60;99.90;;;;;;4250747;27;20049;-81
2023/03/09 01:32:54;;;;;;;16.45;6.68;;;1.60;99.90;;;;;;4250972;27;20043;-81
2023/03/09 01:34:55;;;;;;;13.63;6.60;;;;;;;;;;4215606;28;20571;-81
2023/03/09 01:36:57;;;;;;;14.45;6.57;;;;;;;;;;4214968;28;20055;-81
2023/03/09 01:38:58;;;;;;;16.27;7.00;;;;;;;;;;4231957;28;20112;-81
2023/03/09 01:41:00;;;;;;;16.98;6.88;;;;;;;;;;4250418;27;20039;-81
2023/03/09 01:43:20;;;;;;;15.57;6.65;;;;;;;;;;4232327;28;20057;-81
2023/03/09 01:45:22;;;;;;;13.77;6.40;;;;;;;;;;4214082;28;20078;-81
2023/03/09 01:47:23;;;;;;;15.13;6.50;;;;;;;;;;4232007;28;20500;-81
2023/03/09 01:49:29;;;;;;;16.02;7.32;;;;;;;;;;4232723;28;20094;-81
2023/03/09 01:51:39;;;;;;;17.85;7.03;;;1.60;99.90;;;;;;4232736;28;20047;-81
2023/03/09 01:53:40;;;;;;;14.63;7.13;;;1.20;99.90;;;;;;4232300;28;20545;-81
2023/03/09 01:55:46;;;;;;;19.08;8.13;;;1.40;99.90;;;;;;4232097;28;20050;-81
2023/03/09 01:57:56;;;;;;;16.42;6.57;;;1.80;99.90;;;;;;4232555;28;20051;-81
2023/03/09 02:00:07;;;;;;;15.55;7.13;;;1.10;99.90;;;;;;4249979;27;20043;-81
2023/03/09 02:02:09;;;;;;;17.17;7.45;;;1.10;99.90;;;;;;4244180;27;20071;-81
2023/03/09 02:04:16;;;;;;;17.00;7.45;;;1.00;99.90;;;;;;4199238;28;20056;-81
2023/03/09 02:06:20;;;;;;;19.02;7.28;;;1.00;99.90;;;;;;4198980;28;20053;-81
2023/03/09 02:08:24;;;;;;;16.45;7.55;;;1.00;99.90;;;;;;4198785;28;20555;-81
2023/03/09 02:10:30;;;;;;;19.67;7.65;;;1.00;99.90;;;;;;4233283;28;20152;-81
2023/03/09 02:12:31;;;;;;;18.45;7.13;;;1.00;99.90;;;;;;4233670;28;20086;-81
2023/03/09 02:14:33;;;;;;;15.35;6.78;;;1.00;99.90;;;;;;4214907;28;20040;-81
2023/03/09 02:16:34;;;;;;;16.50;6.78;;;1.40;99.90;;;;;;4215726;28;20654;-81
2023/03/09 02:18:36;;;;;;;16.83;7.00;;;1.00;99.90;;;;;;4214971;28;20081;-81
2023/03/09 02:20:38;;;;;;;18.23;7.47;;;0.90;99.90;;;;;;4232713;28;20043;-81
2023/03/09 02:22:39;;;;;;;18.75;8.00;;;0.90;99.90;;;;;;4215054;28;20095;-81
2023/03/09 02:25:13;;;;;;;15.35;6.90;;;0.80;99.90;;;;;;4214872;28;20062;-81
2023/03/09 02:27:18;;;;;;;18.25;7.63;;;0.80;99.90;;;;;;4198259;28;20098;-81
2023/03/09 02:29:21;;;;;;;19.70;7.38;;;0.90;99.90;;;;;;4233275;28;20047;-81
2023/03/09 02:31:23;;;;;;;17.65;8.13;;;0.80;99.90;;;;;;4215110;28;20052;-81
2023/03/09 02:33:27;;;;;;;17.35;7.57;;;1.20;99.90;;;;;;4232785;28;20568;-81
2023/03/09 02:35:28;;;;;;;21.23;8.02;;;0.80;99.90;;;;;;4233700;28;20593;-81
2023/03/09 02:37:35;;;;;;;21.65;8.43;;;0.80;99.90;;;;;;4215317;28;20036;-81
2023/03/09 02:39:49;;;;;;;14.15;6.95;;;0.80;99.90;;;;;;4233747;28;20085;-81
2023/03/09 02:41:50;;;;;;;19.23;7.22;;;0.80;99.90;;;;;;4233258;28;20416;-81
2023/03/09 02:43:54;;;;;;;16.45;7.35;;;0.80;99.90;;;;;;4232942;28;20032;-81
2023/03/09 02:45:55;;;;;;;16.95;7.47;;;0.80;99.90;;;;;;4232995;28;20035;-81
2023/03/09 02:47:58;;;;;;;18.80;8.35;;;1.10;99.90;;;;;;4215278;28;20055;-81
2023/03/09 02:49:59;;;;;;;16.10;7.43;;;0.80;99.90;;;;;;4233327;28;20039;-81
2023/03/09 02:52:01;;;;;;;18.55;8.60;;;1.80;99.90;;;;;;4215450;28;20112;-81
2023/03/09 02:54:01;;;;;;;19.20;7.38;;;1.40;99.90;;;;;;4208479;28;20126;-81
2023/03/09 02:56:02;;;;;;;21.70;8.30;;;0.80;99.90;;;;;;4214956;28;20051;-81
2023/03/09 02:58:03;;;;;;;16.10;8.32;;;0.80;99.90;;;;;;4215090;28;20067;-81
2023/03/09 03:00:11;;;;;;;20.90;8.48;;;0.80;99.90;;;;;;4201270;28;20060;-81
2023/03/09 03:02:11;;;;;;;19.80;7.22;;;0.70;99.90;;;;;;4231637;28;20126;-80
2023/03/09 03:04:13;;;;;;;17.75;7.90;;;0.80;99.90;;;;;;4214914;28;20048;-81
2023/03/09 03:06:15;;;;;;;19.95;8.57;;;0.90;99.90;;;;;;4231659;28;20048;-81
2023/03/09 03:08:15;;;;;;;19.10;7.90;;;0.80;99.90;;;;;;4247295;28;20039;-80
2023/03/09 03:10:16;;;;;;;22.65;8.23;;;0.80;99.90;;;;;;4198590;28;20103;-80
2023/03/09 03:12:18;;;;;;;19.27;8.07;;;2.10;99.90;;;;;;4216940;28;20056;-80
2023/03/09 03:14:19;;;;;;;16.90;7.78;;;0.80;99.90;;;;;;4217822;28;20048;-81
2023/03/09 03:16:21;;;;;;;18.65;7.70;;;0.80;99.90;;;;;;4236036;28;20505;-81
2023/03/09 03:18:23;;;;;;;19.42;8.77;;;1.50;99.90;;;;;;4218210;28;20503;-80
2023/03/09 03:20:24;;;;;;;19.95;8.48;;;0.80;99.90;;;;;;4236433;28;20107;-81
2023/03/09 03:22:25;;;;;;;23.38;8.98;;;0.70;99.90;;;;;;4217522;28;20400;-81
2023/03/09 03:24:26;;;;;;;22.00;8.48;;;0.70;99.90;;;;;;4218082;28;20051;-81
2023/03/09 03:26:26;;;;;;;17.67;7.88;;;0.70;99.90;;;;;;4221714;28;20560;-81
2023/03/09 03:28:28;;;;;;;20.67;9.35;;;0.70;99.90;;;;;;4252966;27;20483;-81
2023/03/09 03:30:29;;;;;;;20.55;9.07;;;1.50;99.90;;;;;;4252673;27;20047;-81
2023/03/09 03:32:30;;;;;;;24.33;9.52;;;0.70;99.90;;;;;;4252841;27;20082;-81
2023/03/09 03:34:34;;;;;;;19.92;8.75;;;0.90;99.90;;;;;;4253253;27;20543;-81
2023/03/09 03:36:35;;;;;;;19.52;8.75;;;1.90;99.90;;;;;;4234812;28;20062;-81
2023/03/09 03:38:36;;;;;;;25.58;10.80;;;0.80;99.90;;;;;;4217784;28;20051;-81
2023/03/09 03:40:37;;;;;;;22.63;10.27;;;1.70;99.90;;;;;;4217547;28;20077;-81
2023/03/09 03:42:37;;;;;;;22.25;9.95;;;0.80;99.90;;;;;;4206476;28;20048;-81
2023/03/09 03:44:40;;;;;;;23.60;9.15;;;0.80;99.90;;;;;;4201726;28;20484;-81
2023/03/09 03:46:41;;;;;;;23.13;10.07;;;0.80;99.90;;;;;;4218962;28;20439;-80
2023/03/09 03:48:42;;;;;;;21.63;9.38;;;0.80;99.90;;;;;;4218493;28;20064;-81
2023/03/09 03:50:44;;;;;;;18.13;8.55;;;1.40;99.90;;;;;;4201895;28;20056;-81
2023/03/09 03:52:46;;;;;;;24.17;9.10;;;0.80;99.90;;;;;;4218770;28;20056;-81
2023/03/09 03:54:47;;;;;;;21.10;10.25;;;0.80;99.90;;;;;;4236471;28;20046;-81
2023/03/09 03:56:48;;;;;;;22.02;9.13;;;0.80;99.90;;;;;;4236596;28;20476;-81
2023/03/09 03:58:49;;;;;;;23.92;9.63;;;1.00;99.90;;;;;;4232703;28;20086;-81
2023/03/09 04:00:51;;;;;;;23.00;10.07;;;0.80;99.90;;;;;;4236341;28;20040;-81
2023/03/09 04:02:52;;;;;;;22.02;10.07;;;0.80;99.90;;;;;;4234940;28;20044;-81
2023/03/09 04:04:53;;;;;;;21.10;9.23;;;1.60;99.90;;;;;;4236596;28;20491;-81
2023/03/09 04:06:54;;;;;;;22.35;9.27;;;0.90;99.90;;;;;;4218095;28;20130;-81
2023/03/09 04:09:00;;;;;;;20.05;9.38;;;0.90;99.90;;;;;;4218445;28;20078;-81
2023/03/09 04:11:06;;;;;;;24.20;9.25;;;0.90;99.90;;;;;;4200910;28;20049;-81
2023/03/09 04:13:07;;;;;;;22.48;10.02;;;0.90;99.90;;;;;;4201227;28;20477;-81
2023/03/09 04:15:08;;;;;;;21.35;9.15;;;1.50;99.90;;;;;;4234383;28;20039;-81
2023/03/09 04:17:09;;;;;;;23.75;9.48;;;0.90;99.90;;;;;;4217423;28;20052;-81
2023/03/09 04:19:11;;;;;;;26.20;8.88;;;0.90;99.90;;;;;;4216790;28;20040;-81
2023/03/09 04:21:13;;;;;;;23.25;9.13;;;0.90;99.90;;;;;;4200545;28;20076;-81
2023/03/09 04:23:14;;;;;;;22.13;9.68;;;0.90;99.90;;;;;;4198960;28;20796;-81
2023/03/09 04:25:15;;;;;;;24.08;10.82;;;1.30;99.90;;;;;;4216804;28;20098;-81
2023/03/09 04:27:16;;;;;;;19.67;9.50;;;0.90;99.90;;;;;;4234311;28;20503;-81
2023/03/09 04:29:17;;;;;;;22.17;8.68;;;1.80;99.90;;;;;;4199895;28;20040;-81
2023/03/09 04:31:18;;;;;;;23.45;10.18;;;1.00;99.90;;;;;;4233888;28;20617;-81
2023/03/09 04:33:19;;;;;;;22.23;9.60;;;0.90;99.90;;;;;;4200119;28;20048;-81
2023/03/09 04:35:21;;;;;;;22.35;10.50;;;0.90;99.90;;;;;;4235040;28;20043;-81
2023/03/09 04:37:23;;;;;;;21.30;9.20;;;0.90;99.90;;;;;;4199464;28;20509;-81
2023/03/09 04:39:24;;;;;;;20.48;9.77;;;0.90;99.90;;;;;;4234981;28;20563;-81
2023/03/09 04:41:24;;;;;;;22.02;9.27;;;1.40;99.90;;;;;;4235232;28;20050;-81
2023/03/09 04:43:31;;;;;;;21.70;9.35;;;0.90;99.90;;;;;;4216855;28;20044;-81
2023/03/09 04:45:33;;;;;;;20.67;9.63;;;1.50;99.90;;;;;;4216479;28;20078;-81
2023/03/09 04:47:35;;;;;;;25.48;11.18;;;1.20;99.90;;;;;;4234634;28;20043;-81
2023/03/09 04:49:36;;;;;;;20.58;9.73;;;1.10;99.90;;;;;;4234180;28;20134;-81
2023/03/09 04:51:37;;;;;;;20.60;9.43;;;0.80;99.90;;;;;;4234752;28;20085;-81
2023/03/09 04:53:37;;;;;;;22.98;10.00;;;0.80;99.90;;;;;;4216879;28;20108;-81
2023/03/09 04:55:38;;;;;;;21.77;9.32;;;1.70;99.90;;;;;;4234515;28;20073;-81
2023/03/09 04:57:39;;;;;;;19.42;9.05;;;1.50;99.90;;;;;;4216435;28;20040;-81
2023/03/09 04:59:40;;;;;;;23.73;9.05;;;0.70;99.90;;;;;;4234112;28;20043;-81
2023/03/09 05:01:40;;;;;;;18.67;8.77;;;1.20;99.90;;;;;;4235226;27;20472;-81
2023/03/09 05:03:41;;;;;;;20.92;8.68;;;1.80;99.90;;;;;;4234490;28;20112;-81
2023/03/09 05:05:42;;;;;;;22.77;8.75;;;0.80;99.90;;;;;;4199695;28;20048;-81
2023/03/09 05:07:43;;;;;;;20.92;8.90;;;0.80;99.90;;;;;;4199495;28;20080;-81
2023/03/09 05:09:44;;;;;;;21.42;9.70;;;0.70;99.90;;;;;;4234969;28;20043;-81
2023/03/09 05:11:51;;;;;;;22.05;8.32;;;0.70;99.90;;;;;;4199824;28;20055;-81
2023/03/09 05:13:52;;;;;;;21.10;8.93;;;0.80;99.90;;;;;;4234254;28;20083;-81
2023/03/09 05:15:53;;;;;;;20.13;8.50;;;0.80;99.90;;;;;;4234306;28;20039;-81
2023/03/09 05:17:54;;;;;;;21.90;9.57;;;1.70;99.90;;;;;;4216476;28;20040;-81
2023/03/09 05:19:54;;;;;;;20.40;8.73;;;0.80;99.90;;;;;;4231315;28;20050;-81
2023/03/09 05:21:55;;;;;;;24.15;10.10;;;0.80;99.90;;;;;;4216417;28;20066;-81
2023/03/09 05:23:57;;;;;;;19.42;8.77;;;0.80;99.90;;;;;;4251585;27;20043;-81
2023/03/09 05:25:59;;;;;;;26.33;9.88;;;1.80;99.90;;;;;;4232627;28;20055;-81
2023/03/09 05:28:01;;;;;;;22.38;10.10;;;1.70;99.90;;;;;;4232652;28;20048;-82
2023/03/09 05:30:03;;;;;;;20.05;9.25;;;0.80;99.90;;;;;;4215743;28;20083;-82
2023/03/09 05:32:04;;;;;;;19.85;8.65;;;0.80;99.90;;;;;;4232626;28;20124;-82
2023/03/09 05:34:05;;;;;;;18.35;8.02;;;0.80;99.90;;;;;;4215328;28;20051;-82
2023/03/09 05:36:18;;;;;;;20.88;9.57;;;2.00;99.90;;;;;;4215281;28;20058;-82
2023/03/09 05:38:18;;;;;;;20.52;9.07;;;0.80;99.90;;;;;;4251080;27;20515;-82
2023/03/09 05:40:22;;;;;;;20.20;8.70;;;0.80;99.90;;;;;;4214955;28;20094;-82
2023/03/09 05:42:23;;;;;;;20.58;9.43;;;0.80;99.90;;;;;;4222219;28;20535;-82
2023/03/09 05:44:25;;;;;;;18.23;8.90;;;1.70;99.90;;;;;;4198743;28;20106;-82
2023/03/09 05:46:26;;;;;;;20.08;9.20;;;1.60;99.90;;;;;;4237376;27;20052;-83
2023/03/09 05:48:27;;;;;;;20.45;8.52;;;0.80;99.90;;;;;;4238961;27;20047;-85
2023/03/09 05:50:27;;;;;;;18.42;8.35;;;1.40;99.90;;;;;;4217826;28;20040;-82
2023/03/09 05:52:28;;;;;;;21.40;9.23;;;0.70;99.90;;;;;;4204198;28;20051;-82
2023/03/09 05:54:29;;;;;;;21.00;8.63;;;1.20;99.90;;;;;;4218824;28;20047;-82
2023/03/09 05:56:30;;;;;;;18.92;9.00;;;0.70;99.90;;;;;;4233501;28;20048;-82
2023/03/09 05:58:33;;;;;;;21.50;9.93;;;0.70;99.90;;;;;;4215222;28;20079;-82
2023/03/09 06:00:34;;;;;;;19.17;8.60;;;0.70;99.90;;;;;;4198568;28;20334;-82
2023/03/09 06:02:34;;;;;;;19.10;8.93;;;1.30;99.90;;;;;;4228308;28;20047;-82
2023/03/09 06:04:36;;;;;;;17.08;7.65;;;0.70;99.90;;;;;;4233135;28;20051;-82
2023/03/09 06:06:38;;;;;;;19.90;8.73;;;0.80;99.90;;;;;;4250202;27;20071;-82
2023/03/09 06:08:38;;;;;;;18.75;9.20;;;0.70;99.90;;;;;;4232497;28;20078;-82
2023/03/09 06:10:39;;;;;;;21.50;9.85;;;0.70;99.90;;;;;;4231901;28;20036;-83
2023/03/09 06:12:41;;;;;;;23.30;9.75;;;1.50;99.90;;;;;;4232467;28;20078;-83
2023/03/09 06:14:42;;;;;;;18.00;8.30;;;0.70;99.90;;;;;;4232259;28;20127;-83
2023/03/09 06:16:44;;;;;;;22.38;8.75;;;0.90;99.90;;;;;;4215856;28;20047;-82
2023/03/09 06:18:45;;;;;;;20.05;8.35;;;0.70;99.90;;;;;;4214515;28;20099;-82
2023/03/09 06:20:45;;;;;;;24.15;8.50;;;0.70;99.90;;;;;;4228797;28;20058;-82
2023/03/09 06:22:48;;;;;;;20.85;8.60;;;0.90;99.90;;;;;;4251145;27;20132;-82
2023/03/09 06:24:50;;;;;;;21.95;9.50;;;1.80;99.90;;;;;;4231723;28;20051;-82
2023/03/09 06:26:50;;;;;;;19.45;9.57;;;1.60;99.90;;;;;;4249648;27;20499;-82
2023/03/09 06:28:52;;;;;;;19.02;9.07;;;0.80;99.90;;;;;;4214023;28;20079;-82
2023/03/09 06:30:55;;;;;;;23.05;10.77;;;0.80;99.90;;;;;;4214770;28;20048;-82
2023/03/09 06:32:56;;;;;;;20.05;8.20;;;1.80;99.90;;;;;;4231530;28;20051;-80
2023/03/09 06:35:02;;;;;;;17.80;8.38;;;0.80;99.90;;;;;;4232191;28;20040;-82
2023/03/09 06:37:03;;;;;;;19.67;9.00;;;0.80;99.90;;;;;;4231195;28;20039;-82
2023/03/09 06:39:05;;;;;;;19.08;9.52;;;0.80;99.90;;;;;;4214332;28;20055;-82
2023/03/09 06:41:06;;;;;;;15.10;7.82;;;0.80;99.90;;;;;;4250146;27;20379;-82
2023/03/09 06:43:07;;;;;;;17.10;8.10;;;0.80;99.90;;;;;;4215088;28;20059;-82
2023/03/09 06:45:09;;;;;;;19.17;8.30;;;1.20;99.90;;;;;;4230510;28;20051;-82
2023/03/09 06:47:10;;;;;;;22.58;8.65;;;0.90;99.90;;;;;;4197034;28;20059;-82
2023/03/09 06:49:11;;;;;;;19.90;8.43;;;1.80;99.90;;;;;;4232174;28;20069;-82
2023/03/09 06:51:12;;;;;;;20.02;8.77;;;0.90;99.90;;;;;;4198274;28;20541;-82
2023/03/09 06:53:13;;;;;;;23.05;9.07;;;1.60;99.90;;;;;;4233026;28;20058;-82
2023/03/09 06:55:15;;;;;;;19.85;8.98;;;0.90;99.90;;;;;;4214835;28;20048;-82
2023/03/09 06:57:16;;;;;;;20.38;8.75;;;1.00;99.90;;;;;;4197479;28;20489;-81
2023/03/09 06:59:17;;;;;;;19.30;9.02;;;2.00;99.90;;;;;;4241924;28;20054;-82
2023/03/09 07:01:18;;;;;;;18.08;8.35;;;1.00;99.90;;;;;;4247350;28;20915;-81
2023/03/09 07:03:19;;;;;;;21.30;8.88;;;1.10;99.90;;;;;;4210931;28;20067;-82
2023/03/09 07:05:20;;;;;;;17.02;7.63;;;1.10;99.90;;;;;;4214341;28;20399;-81
2023/03/09 07:07:22;;;;;;;23.10;8.32;;;1.10;99.90;;;;;;4214944;28;20462;-82
2023/03/09 07:09:22;;;;;;;21.48;8.80;;;1.10;99.90;;;;;;4214846;28;20070;-83
2023/03/09 07:11:24;;;;;;;23.42;10.02;;;1.80;99.90;;;;;;4231700;28;20099;-83
2023/03/09 07:13:25;;;;;;;19.25;8.75;;;1.70;99.90;;;;;;4232293;28;20193;-82
2023/03/09 07:15:26;;;;;;;20.02;8.27;;;1.30;99.90;;;;;;4231563;28;20056;-85
2023/03/09 07:17:26;;;;;;;23.42;8.25;;;2.40;99.90;;;;;;4225819;28;20529;-82
2023/03/09 07:19:28;;;;;;;18.48;8.27;;;1.40;99.90;;;;;;4249397;28;20121;-82
2023/03/09 07:21:29;;;;;;;22.20;9.48;;;1.50;99.90;;;;;;4245132;28;20376;-82
2023/03/09 07:23:31;;;;;;;21.42;8.88;;;1.50;99.90;;;;;;4221894;28;20059;-81
2023/03/09 07:25:34;;;;;;;20.27;9.00;;;2.60;99.90;;;;;;4221144;28;20127;-82
2023/03/09 07:27:34;;;;;;;19.17;9.02;;;1.70;99.90;;;;;;4222822;28;20052;-81
2023/03/09 07:29:35;;;;;;;18.67;8.68;;;1.90;99.90;;;;;;4219508;28;20075;-81
2023/03/09 07:31:36;;;;;;;16.52;8.02;;;2.20;99.90;;;;;;4230371;28;20092;-81
2023/03/09 07:33:37;;;;;;;18.75;8.48;;;2.40;99.90;;;;;;4238293;28;20087;-82
2023/03/09 07:35:39;;;;;;;18.33;8.95;;;2.40;99.90;;;;;;4229264;28;20039;-82
2023/03/09 07:37:41;;;;;;;18.13;8.20;;;2.50;99.90;;;;;;4231750;28;20105;-81
2023/03/09 07:39:41;;;;;;;18.25;8.63;;;2.50;99.90;;;;;;4245190;28;20032;-81
2023/03/09 07:41:42;;;;;;;17.98;8.30;;;3.60;99.90;;;;;;4234314;28;20044;-81
2023/03/09 07:43:44;;;;;;;17.65;8.77;;;2.60;99.90;;;;;;4240268;28;20048;-81
2023/03/09 07:45:45;;;;;;;21.20;9.48;;;2.80;99.90;;;;;;4244313;28;20040;-81
2023/03/09 07:47:47;;;;;;;16.90;7.85;;;3.20;99.90;;;;;;4239332;28;20078;-81
2023/03/09 07:49:49;;;;;;;17.52;8.40;;;3.20;99.90;;;;;;4247935;28;20060;-81
2023/03/09 07:51:52;;;;;;;15.95;8.07;;;4.30;99.90;;;;;;4242462;28;20037;-81
2023/03/09 07:57:00;;;;;;;18.05;8.07;;;3.90;99.90;;;;;;4215320;28;20496;-82
2023/03/09 07:59:01;;;;;;;15.88;7.43;;;4.20;99.90;;;;;;4233050;28;20139;-81
2023/03/09 08:01:03;;;;;;;15.13;8.13;;;4.40;99.90;;;;;;4217097;28;20493;-81
2023/03/09 08:03:04;;;;;;;19.45;7.82;;;4.70;99.90;;;;;;4231308;28;20451;-82
2023/03/09 08:05:08;;;;;;;16.13;8.05;;;5.20;99.90;;;;;;4218716;28;20051;-82
2023/03/09 08:07:09;;;;;;;17.90;7.25;;;5.20;99.90;;;;;;4232926;28;20131;-81
2023/03/09 08:09:14;;;;;;;15.85;8.10;;;5.10;99.90;;;;;;4217790;28;20508;-81
2023/03/09 08:11:15;;;;;;;14.07;6.88;;;4.90;99.90;;;;;;4230616;28;20044;-81
2023/03/09 08:13:16;;;;;;;18.10;6.93;;;4.90;99.90;;;;;;4218775;28;20100;-81
2023/03/09 08:15:22;;;;;;;14.82;6.28;;;5.00;99.90;;;;;;4232843;28;20043;-82
2023/03/09 08:17:22;;;;;;;11.43;6.60;;;5.70;99.90;;;;;;4230138;28;20048;-81
2023/03/09 08:19:23;;;;;;;12.18;6.47;;;5.40;99.90;;;;;;4220782;28;20100;-81
2023/03/09 08:21:25;;;;;;;12.40;6.78;;;5.90;99.90;;;;;;4212264;28;20044;-81
2023/03/09 08:23:27;;;;;;;11.57;6.10;;;5.80;99.90;;;;;;4219893;28;20051;-81
2023/03/09 08:25:28;;;;;;;12.40;6.45;;;6.00;99.90;;;;;;4232184;27;20040;-81
2023/03/09 08:27:29;;;;;;;11.75;7.03;;;5.80;99.90;;;;;;4250748;27;20035;-81
2023/03/09 08:29:30;;;;;;;12.77;5.80;;;5.90;99.90;;;;;;4211047;28;20071;-82
2023/03/09 08:31:30;;;;;;;10.32;6.03;;;5.60;99.90;;;;;;4214778;28;20496;-82
2023/03/09 08:33:31;;;;;;;12.27;6.22;;;5.60;99.90;;;;;;4253574;27;20047;-82
2023/03/09 08:35:32;;;;;;;11.75;5.72;;;6.30;99.90;;;;;;4271307;27;20065;-82
2023/03/09 08:37:33;;;;;;;11.77;5.95;;;6.50;99.90;;;;;;4271055;27;20074;-82
2023/03/09 08:39:34;;;;;;;12.10;6.07;;;6.60;99.90;;;;;;4253724;28;20053;-82
2023/03/09 08:41:34;;;;;;;10.15;5.85;;;7.40;99.90;;;;;;4253514;28;20047;-82
2023/03/09 08:43:35;;;;;;;14.10;5.20;;;7.20;99.90;;;;;;4253267;28;20030;-81
2023/03/09 08:45:37;;;;;;;11.02;5.40;;;7.40;99.90;;;;;;4251209;28;20073;-82
2023/03/09 08:47:38;;;;;;;11.75;5.70;;;7.70;99.90;;;;;;4236735;28;20039;-82
2023/03/09 08:49:41;;;;;;;9.77;5.53;;;7.80;99.90;;;;;;4252462;28;20024;-82
2023/03/09 08:51:41;;;;;;;11.73;5.28;;;7.80;99.90;;;;;;4252455;28;20071;-82
2023/03/09 08:53:42;;;;;;;8.73;5.07;;;7.70;99.90;;;;;;4253336;28;20048;-82
2023/03/09 08:55:43;;;;;;;7.60;4.38;;;7.90;99.90;;;;;;4253900;28;20079;-82
2023/03/09 08:57:43;;;;;;;8.57;5.05;;;8.00;99.90;;;;;;4244235;28;20124;-82
2023/03/09 08:59:47;;;;;;;9.50;5.32;;;8.10;99.90;;;;;;4235267;27;20134;-82
2023/03/09 09:01:57;;;;;;;8.50;4.75;;;8.30;99.90;;;;;;4246924;27;20039;-82
2023/03/09 09:03:58;;;;;;;8.50;4.90;;;8.90;99.90;;;;;;4250014;27;20046;-82
2023/03/09 09:06:11;;;;;;;7.80;4.97;;;9.40;99.90;;;;;;4233172;28;20043;-82
2023/03/09 09:08:14;;;;;;;8.32;4.90;;;10.00;99.90;;;;;;4251192;27;20042;-82
2023/03/09 09:10:14;;;;;;;7.97;4.50;;;10.30;99.90;;;;;;4249589;27;20050;-82
2023/03/09 09:12:15;;;;;;;6.82;4.47;;;10.40;99.90;;;;;;4250639;27;20406;-82
2023/03/09 09:14:17;;;;;;;9.18;4.65;;;10.20;99.90;;;;;;4251268;27;20039;-83
2023/03/09 09:16:19;;;;;;;8.35;4.00;;;;;;;;;;4216184;28;20575;-83
2023/03/09 09:18:21;;;;;;;8.25;4.57;;;;;;;;;;4233500;28;20624;-81
2023/03/09 09:20:22;;;;;;;10.55;4.80;;;9.70;99.90;;;;;;4232380;28;20149;-83
2023/03/09 09:22:23;;;;;;;7.13;4.35;;;;;;;;;;4232047;28;20051;-81
2023/03/09 09:24:24;;;;;;;7.93;4.63;;;;;;;;;;4231662;28;20088;-80
2023/03/09 09:26:25;;;;;;;7.22;4.20;;;;;;;;;;4231813;28;20420;-80
2023/03/09 09:28:27;;;;;;;7.72;4.03;;;8.10;99.90;;;;;;4249127;27;20043;-81
2023/03/09 09:30:27;;;;;;;7.32;4.32;;;7.40;99.90;;;;;;4249909;27;20456;-82
2023/03/09 09:32:28;;;;;;;7.20;4.00;;;7.40;99.90;;;;;;4249700;27;20039;-80
2023/03/09 09:34:31;;;;;;;7.15;3.90;;;;;;;;;;4249895;27;20388;-81
2023/03/09 09:36:34;;;;;;;5.82;3.42;;;7.70;99.90;;;;;;4249349;27;20122;-80
2023/03/09 09:38:35;;;;;;;6.82;3.47;;;9.30;99.90;;;;;;4250596;27;20469;-81
2023/03/09 09:40:37;;;;;;;7.38;3.63;;;9.80;98.60;;;;;;4249622;27;20047;-81
2023/03/09 09:42:45;;;;;;;9.85;3.38;;;10.40;98.70;;;;;;4231262;28;20067;-80
2023/03/09 09:44:49;;;;;;;7.83;3.63;;;11.00;97.60;;;;;;4249773;27;20039;-81
2023/03/09 09:46:53;;;;;;;5.55;3.42;;;11.40;97.10;;;;;;4249639;27;20035;-80
2023/03/09 09:48:54;;;;;;;5.30;3.47;;;;;;;;;;4249213;27;20035;-81
2023/03/09 09:51:04;;;;;;;7.75;3.50;;;11.60;96.70;;;;;;4250514;27;20067;-82
2023/03/09 09:53:28;;;;;;;4.80;2.95;;;11.10;95.10;;;;;;4249442;27;20049;-82
2023/03/09 09:55:34;;;;;;;5.25;3.45;;;10.60;95.50;;;;;;4249556;27;20051;-81
2023/03/09 09:57:41;;;;;;;4.57;2.83;;;10.50;96.20;;;;;;4249805;27;20080;-81
2023/03/09 09:59:52;;;;;;;6.68;3.38;;;10.60;96.20;;;;;;4249375;27;20047;-81
2023/03/09 10:02:10;;;;;;;4.80;2.65;;;10.50;96.30;;;;;;4246199;27;20509;-82
2023/03/09 10:04:21;;;;;;;3.85;2.20;;;10.10;96.00;;;;;;4249404;27;20411;-81
2023/03/09 10:06:26;;;;;;;6.82;2.92;;;9.80;95.90;;;;;;4233014;28;20047;-82
2023/03/09 10:08:51;;;;;;;5.38;2.90;;;10.00;96.50;;;;;;4248767;27;20064;-81
2023/03/09 10:10:54;;;;;;;4.53;2.70;;;9.80;94.80;;;;;;4248212;27;20406;-81
2023/03/09 10:12:57;;;;;;;5.25;3.22;;;9.90;95.80;;;;;;4249166;27;20483;-81
2023/03/09 10:15:04;;;;;;;4.78;2.80;;;10.30;96.20;;;;;;4248017;27;20113;-81
2023/03/09 10:17:39;;;;;;;3.92;2.40;;;10.30;96.10;;;;;;4248082;27;20039;-81
2023/03/09 10:19:41;;;;;;;4.55;2.88;;;10.20;94.50;;;;;;4248069;27;20046;-81
2023/03/09 10:21:58;;;;;;;3.92;2.60;;;10.60;95.90;;;;;;4247159;27;20067;-82
2023/03/09 10:24:06;;;;;;;3.90;2.17;;;;;;;;;;4248764;27;20583;-82
2023/03/09 10:26:22;;;;;;;6.10;2.60;;;;;;;;;;4248263;27;20134;-81
2023/03/09 10:28:28;;;;;;;2.75;1.90;;;;;;;;;;4233171;27;20047;-81
2023/03/09 10:30:36;;;;;;;4.72;2.20;;;11.00;95.70;;;;;;4248054;27;20054;-82
2023/03/09 10:33:12;;;;;;;4.07;2.30;;;11.30;92.50;;;;;;4248370;27;20502;-82
2023/03/09 10:35:28;;;;;;;5.20;2.67;;;10.80;92.00;;;;;;4231005;28;20061;-82
2023/03/09 10:37:37;;;;;;;3.78;2.58;;;10.50;94.00;;;;;;4248773;27;20064;-82
2023/03/09 10:39:43;;;;;;;4.30;2.35;;;10.30;94.00;;;;;;4248656;27;20058;-81
2023/03/09 10:41:44;;;;;;;4.13;2.47;;;10.00;94.20;;;;;;4248698;27;20118;-82
2023/03/09 10:43:45;;;;;;;5.90;2.72;;;9.90;94.10;;;;;;4247987;27;20058;-82
2023/03/09 10:45:46;;;;;;;4.88;2.67;;;9.70;94.20;;;;;;4230821;28;20047;-82
2023/03/09 10:47:49;;;;;;;4.38;2.95;;;9.40;93.90;;;;;;4229664;28;20043;-81